createdAt,value
2018-08-07T00:01:19.096Z,14.89
2018-08-07T00:04:17.032Z,15.00
2018-08-07T00:07:15.130Z,14.92
2018-08-07T00:10:13.953Z,14.88
2018-08-07T00:13:12.071Z,15.01
2018-08-07T00:16:10.340Z,15.04
2018-08-07T00:19:08.795Z,15.00
2018-08-07T00:22:07.034Z,14.96
2018-08-07T00:25:05.132Z,14.92
2018-08-07T00:28:04.178Z,14.90
2018-08-07T00:31:02.566Z,14.94
2018-08-07T00:34:00.581Z,15.04
2018-08-07T00:37:00.629Z,15.04
2018-08-07T00:39:58.677Z,15.00
2018-08-07T00:42:57.069Z,15.15
2018-08-07T00:45:55.104Z,15.17
2018-08-07T00:48:53.353Z,15.19
2018-08-07T00:51:51.410Z,15.19
2018-08-07T00:54:51.795Z,15.26
2018-08-07T00:57:50.587Z,15.28
2018-08-07T01:00:48.664Z,15.20
2018-08-07T01:03:46.644Z,15.09
2018-08-07T01:06:45.086Z,14.97
2018-08-07T01:09:43.790Z,14.90
2018-08-07T01:12:41.907Z,14.84
2018-08-07T01:15:41.772Z,14.85
2018-08-07T01:18:40.322Z,14.72
2018-08-07T01:21:38.458Z,14.64
2018-08-07T01:24:36.791Z,14.58
2018-08-07T01:27:35.814Z,14.54
2018-08-07T01:30:37.145Z,14.51
2018-08-07T01:33:35.208Z,14.56
2018-08-07T01:36:33.204Z,14.61
2018-08-07T01:39:32.425Z,14.55
2018-08-07T01:42:30.847Z,14.50
2018-08-07T01:45:29.279Z,14.37
2018-08-07T01:48:27.471Z,14.25
2018-08-07T01:51:25.820Z,14.16
2018-08-07T01:54:24.237Z,14.09
2018-08-07T01:57:22.015Z,14.02
2018-08-07T02:00:22.196Z,14.05
2018-08-07T02:03:20.201Z,14.11
2018-08-07T02:06:18.301Z,14.18
2018-08-07T02:09:17.304Z,14.27
2018-08-07T02:12:15.431Z,14.29
2018-08-07T02:15:14.488Z,14.25
2018-08-07T02:18:12.798Z,14.07
2018-08-07T02:21:11.023Z,14.06
2018-08-07T02:24:10.059Z,14.15
2018-08-07T02:27:08.146Z,14.28
2018-08-07T02:30:06.493Z,14.30
2018-08-07T02:33:04.681Z,14.26
2018-08-07T02:36:03.902Z,14.29
2018-08-07T02:39:02.047Z,14.21
2018-08-07T02:42:04.105Z,14.27
2018-08-07T02:45:02.103Z,14.39
2018-08-07T02:47:59.952Z,14.28
2018-08-07T02:50:58.245Z,14.19
2018-08-07T02:53:56.232Z,14.10
2018-08-07T02:56:54.464Z,13.98
2018-08-07T02:59:52.891Z,13.88
2018-08-07T03:02:51.440Z,13.84
2018-08-07T03:05:49.603Z,13.73
2018-08-07T03:08:47.726Z,13.75
2018-08-07T03:11:46.439Z,13.75
2018-08-07T03:14:44.484Z,13.82
2018-08-07T03:17:43.246Z,13.79
2018-08-07T03:20:41.298Z,13.80
2018-08-07T03:23:40.171Z,13.86
2018-08-07T03:26:38.651Z,13.87
2018-08-07T03:29:36.552Z,13.89
2018-08-07T03:32:34.758Z,13.83
2018-08-07T03:35:33.185Z,13.75
2018-08-07T03:38:31.525Z,13.76
2018-08-07T03:41:29.588Z,13.80
2018-08-07T03:44:27.635Z,13.71
2018-08-07T03:47:25.918Z,13.67
2018-08-07T03:50:25.087Z,13.66
2018-08-07T03:53:23.470Z,13.68
2018-08-07T03:56:22.051Z,13.67
2018-08-07T03:59:20.225Z,13.69
2018-08-07T04:02:18.470Z,13.69
2018-08-07T04:05:17.358Z,13.73
2018-08-07T04:08:15.608Z,13.76
2018-08-07T04:11:14.303Z,13.81
2018-08-07T04:14:12.301Z,13.88
2018-08-07T04:17:10.878Z,13.99
2018-08-07T04:20:09.070Z,14.11
2018-08-07T04:23:07.513Z,14.23
2018-08-07T04:26:05.502Z,14.35
2018-08-07T04:29:04.158Z,14.47
2018-08-07T04:32:02.244Z,14.63
2018-08-07T04:35:00.563Z,14.78
2018-08-07T04:37:59.283Z,14.91
2018-08-07T04:40:57.920Z,15.06
2018-08-07T04:43:55.785Z,15.16
2018-08-07T04:46:53.936Z,15.28
2018-08-07T04:49:52.751Z,15.41
2018-08-07T04:52:52.287Z,15.58
2018-08-07T04:55:50.483Z,15.71
2018-08-07T04:58:48.627Z,15.84
2018-08-07T05:01:46.683Z,16.01
2018-08-07T05:04:45.044Z,16.24
2018-08-07T05:07:42.743Z,16.45
2018-08-07T05:10:40.852Z,16.62
2018-08-07T05:13:39.045Z,16.76
2018-08-07T05:16:38.182Z,16.92
2018-08-07T05:19:36.325Z,17.13
2018-08-07T05:22:35.799Z,17.32
2018-08-07T05:25:33.889Z,17.48
2018-08-07T05:28:32.199Z,17.63
2018-08-07T05:31:30.300Z,17.80
2018-08-07T05:34:28.412Z,17.98
2018-08-07T05:37:27.631Z,18.12
2018-08-07T05:40:26.616Z,18.27
2018-08-07T05:43:25.955Z,18.45
2018-08-07T05:46:24.760Z,18.58
2018-08-07T05:49:24.068Z,18.76
2018-08-07T05:52:22.156Z,18.92
2018-08-07T05:55:20.295Z,19.10
2018-08-07T05:58:18.416Z,19.23
2018-08-07T06:01:17.386Z,19.36
2018-08-07T06:04:15.530Z,19.53
2018-08-07T06:07:15.712Z,19.66
2018-08-07T06:10:14.160Z,19.85
2018-08-07T06:13:12.112Z,20.02
2018-08-07T06:16:10.183Z,20.18
2018-08-07T06:19:09.020Z,20.40
2018-08-07T06:22:07.508Z,20.54
2018-08-07T06:25:05.280Z,20.71
2018-08-07T06:28:03.722Z,20.88
2018-08-07T06:31:01.831Z,21.05
2018-08-07T06:34:00.268Z,21.20
2018-08-07T06:36:58.455Z,21.35
2018-08-07T06:39:56.632Z,21.48
2018-08-07T06:42:55.458Z,21.62
2018-08-07T06:45:54.034Z,21.73
2018-08-07T06:48:53.464Z,21.81
2018-08-07T06:51:52.152Z,21.97
2018-08-07T06:54:50.851Z,22.12
2018-08-07T06:57:50.730Z,22.28
2018-08-07T07:00:48.744Z,22.36
2018-08-07T07:03:47.085Z,22.47
2018-08-07T07:06:45.101Z,22.62
2018-08-07T07:09:43.209Z,22.73
2018-08-07T07:12:41.554Z,22.89
2018-08-07T07:15:39.701Z,22.98
2018-08-07T07:18:37.939Z,23.09
2018-08-07T07:21:38.066Z,23.22
2018-08-07T07:24:36.203Z,23.30
2018-08-07T07:27:34.391Z,23.45
2018-08-07T07:30:35.480Z,23.56
2018-08-07T07:33:33.665Z,23.76
2018-08-07T07:36:32.036Z,23.90
2018-08-07T07:39:31.143Z,24.01
2018-08-07T07:42:30.205Z,24.18
2018-08-07T07:45:30.170Z,24.29
2018-08-07T07:48:36.756Z,24.38
2018-08-07T07:51:35.031Z,24.51
2018-08-07T07:54:33.187Z,24.63
2018-08-07T07:57:31.575Z,24.70
2018-08-07T08:00:38.728Z,24.79
2018-08-07T08:03:36.911Z,24.89
2018-08-07T08:06:34.853Z,24.99
2018-08-07T08:09:33.220Z,25.04
2018-08-07T08:12:33.007Z,25.16
2018-08-07T08:15:37.496Z,25.24
2018-08-07T08:18:35.278Z,25.34
2018-08-07T08:21:33.560Z,25.38
2018-08-07T08:24:31.583Z,25.44
2018-08-07T08:27:29.923Z,25.53
2018-08-07T08:30:28.833Z,25.63
2018-08-07T08:33:26.919Z,25.78
2018-08-07T08:36:25.260Z,25.85
2018-08-07T08:39:24.359Z,25.92
2018-08-07T08:42:22.299Z,25.96
2018-08-07T08:45:22.536Z,26.01
2018-08-07T08:48:22.850Z,26.07
2018-08-07T08:51:21.813Z,26.16
2018-08-07T08:54:20.064Z,26.16
2018-08-07T08:57:18.135Z,26.26
2018-08-07T09:00:16.493Z,26.43
2018-08-07T09:03:15.510Z,26.45
2018-08-07T09:06:14.653Z,26.54
2018-08-07T09:09:13.041Z,26.59
2018-08-07T09:12:11.568Z,26.59
2018-08-07T09:15:09.726Z,26.68
2018-08-07T09:18:08.340Z,26.78
2018-08-07T09:21:06.523Z,26.85
2018-08-07T09:24:04.463Z,26.97
2018-08-07T09:27:02.461Z,27.05
2018-08-07T09:30:01.370Z,27.12
2018-08-07T09:33:01.332Z,27.19
2018-08-07T09:35:59.864Z,27.33
2018-08-07T09:38:58.562Z,27.41
2018-08-07T09:41:56.701Z,27.56
2018-08-07T09:44:54.839Z,27.68
2018-08-07T09:47:55.702Z,27.69
2018-08-07T09:51:13.975Z,27.75
2018-08-07T09:54:11.990Z,27.89
2018-08-07T09:57:10.381Z,27.97
2018-08-07T10:00:08.598Z,27.99
2018-08-07T10:03:09.651Z,28.13
2018-08-07T10:06:07.629Z,28.20
2018-08-07T10:09:06.768Z,28.30
2018-08-07T10:12:04.936Z,28.41
2018-08-07T10:15:03.328Z,28.49
2018-08-07T10:18:01.795Z,28.61
2018-08-07T10:20:59.851Z,28.82
2018-08-07T10:23:57.914Z,28.88
2018-08-07T10:26:56.088Z,28.97
2018-08-07T10:29:54.627Z,29.08
2018-08-07T10:32:52.938Z,29.23
2018-08-07T10:35:51.359Z,29.30
2018-08-07T10:38:49.690Z,29.47
2018-08-07T10:41:48.812Z,29.67
2018-08-07T10:44:46.884Z,29.86
2018-08-07T10:47:46.207Z,30.06
2018-08-07T10:50:44.450Z,30.18
2018-08-07T10:53:42.436Z,30.39
2018-08-07T10:56:40.845Z,30.47
2018-08-07T10:59:38.580Z,30.64
2018-08-07T11:02:37.882Z,30.78
2018-08-07T11:05:37.793Z,30.89
2018-08-07T11:08:36.022Z,31.13
2018-08-07T11:11:33.907Z,31.35
2018-08-07T11:14:32.785Z,31.54
2018-08-07T11:17:30.658Z,31.80
2018-08-07T11:20:30.100Z,32.24
2018-08-07T11:23:28.027Z,32.56
2018-08-07T11:26:27.241Z,32.98
2018-08-07T11:29:25.448Z,33.89
2018-08-07T11:32:23.885Z,35.07
2018-08-07T11:35:23.281Z,35.63
2018-08-07T11:38:22.520Z,36.05
2018-08-07T11:41:21.178Z,36.61
2018-08-07T11:44:20.224Z,37.11
2018-08-07T11:47:19.135Z,37.49
2018-08-07T11:50:18.369Z,38.09
2018-08-07T11:53:17.592Z,38.48
2018-08-07T11:56:16.128Z,38.80
2018-08-07T11:59:14.639Z,39.30
2018-08-07T12:02:14.262Z,39.41
2018-08-07T12:05:12.182Z,39.38
2018-08-07T12:08:10.683Z,39.40
2018-08-07T12:11:09.534Z,39.48
2018-08-07T12:14:09.157Z,39.81
2018-08-07T12:17:08.092Z,39.93
2018-08-07T12:20:06.807Z,40.37
2018-08-07T12:23:06.388Z,40.40
2018-08-07T12:26:04.344Z,40.36
2018-08-07T12:29:02.606Z,40.82
2018-08-07T12:32:01.040Z,41.18
2018-08-07T12:34:58.987Z,40.95
2018-08-07T12:37:58.678Z,40.60
2018-08-07T12:40:56.949Z,40.94
2018-08-07T12:43:55.195Z,41.11
2018-08-07T12:46:53.507Z,41.00
2018-08-07T12:49:51.812Z,41.01
2018-08-07T12:52:50.071Z,41.01
2018-08-07T12:55:48.692Z,40.98
2018-08-07T12:58:46.578Z,41.16
2018-08-07T13:01:44.843Z,41.24
2018-08-07T13:04:42.792Z,41.04
2018-08-07T13:07:40.799Z,41.20
2018-08-07T13:10:40.370Z,41.24
2018-08-07T13:13:39.504Z,41.12
2018-08-07T13:16:39.098Z,40.89
2018-08-07T13:19:37.446Z,40.61
2018-08-07T13:22:35.727Z,40.59
2018-08-07T13:25:35.040Z,40.82
2018-08-07T13:28:33.245Z,40.99
2018-08-07T13:31:31.815Z,41.39
2018-08-07T13:34:30.596Z,41.42
2018-08-07T13:37:28.756Z,41.34
2018-08-07T13:40:31.100Z,41.33
2018-08-07T13:43:29.376Z,41.03
2018-08-07T13:46:27.404Z,41.12
2018-08-07T13:49:25.873Z,41.11
2018-08-07T13:52:23.932Z,41.26
2018-08-07T13:55:23.183Z,41.17
2018-08-07T13:58:21.795Z,41.48
2018-08-07T14:01:21.628Z,41.28
2018-08-07T14:04:19.852Z,41.64
2018-08-07T14:07:18.279Z,41.68
2018-08-07T14:10:17.105Z,41.62
2018-08-07T14:13:15.544Z,41.73
2018-08-07T14:16:13.968Z,41.72
2018-08-07T14:19:11.898Z,41.93
2018-08-07T14:22:10.573Z,42.02
2018-08-07T14:25:08.876Z,41.89
2018-08-07T14:28:07.743Z,42.11
2018-08-07T14:31:05.822Z,42.37
2018-08-07T14:34:03.943Z,42.22
2018-08-07T14:37:02.026Z,42.08
2018-08-07T14:40:00.168Z,42.27
2018-08-07T14:42:59.528Z,42.18
2018-08-07T14:45:57.727Z,42.31
2018-08-07T14:48:55.963Z,42.52
2018-08-07T14:51:53.827Z,42.54
2018-08-07T14:54:52.168Z,42.48
2018-08-07T14:57:51.082Z,42.79
2018-08-07T15:00:49.480Z,43.10
2018-08-07T15:03:47.780Z,42.85
2018-08-07T15:06:46.597Z,43.37
2018-08-07T15:09:45.044Z,43.39
2018-08-07T15:12:43.864Z,43.15
2018-08-07T15:15:44.272Z,42.91
2018-08-07T15:18:43.556Z,42.55
2018-08-07T15:21:41.855Z,42.55
2018-08-07T15:24:40.135Z,42.64
2018-08-07T15:27:38.546Z,43.24
2018-08-07T15:30:38.762Z,43.14
2018-08-07T15:33:36.853Z,42.93
2018-08-07T15:36:35.204Z,42.93
2018-08-07T15:39:34.562Z,43.08
2018-08-07T15:42:34.048Z,43.33
2018-08-07T15:45:34.121Z,42.91
2018-08-07T15:48:33.265Z,42.70
2018-08-07T15:51:31.515Z,42.44
2018-08-07T15:54:29.902Z,42.11
2018-08-07T15:57:28.147Z,42.57
2018-08-07T16:00:30.366Z,42.62
2018-08-07T16:03:28.340Z,42.43
2018-08-07T16:06:26.578Z,42.24
2018-08-07T16:09:25.081Z,42.15
2018-08-07T16:12:23.540Z,42.58
2018-08-07T16:15:22.545Z,42.05
2018-08-07T16:18:22.004Z,41.48
2018-08-07T16:21:19.996Z,41.32
2018-08-07T16:24:19.349Z,41.70
2018-08-07T16:27:17.327Z,41.71
2018-08-07T16:30:15.649Z,42.01
2018-08-07T16:33:13.664Z,42.18
2018-08-07T16:36:12.191Z,42.09
2018-08-07T16:39:10.101Z,42.55
2018-08-07T16:42:08.523Z,42.34
2018-08-07T16:45:07.853Z,41.75
2018-08-07T16:48:06.015Z,40.83
2018-08-07T16:51:04.067Z,40.16
2018-08-07T16:54:04.054Z,39.53
2018-08-07T16:57:03.390Z,39.34
2018-08-07T17:00:01.760Z,38.89
2018-08-07T17:03:00.188Z,38.66
2018-08-07T17:05:58.440Z,38.34
2018-08-07T17:08:56.919Z,38.08
2018-08-07T17:11:55.319Z,37.97
2018-08-07T17:14:53.273Z,37.87
2018-08-07T17:17:52.601Z,37.50
2018-08-07T17:20:50.716Z,37.27
2018-08-07T17:23:50.012Z,37.04
2018-08-07T17:26:48.075Z,36.89
2018-08-07T17:29:46.110Z,36.75
2018-08-07T17:32:45.737Z,36.46
2018-08-07T17:35:43.381Z,36.13
2018-08-07T17:38:41.704Z,35.72
2018-08-07T17:41:40.073Z,35.56
2018-08-07T17:44:37.998Z,35.22
2018-08-07T17:47:36.383Z,34.84
2018-08-07T17:50:38.930Z,34.46
2018-08-07T17:53:37.395Z,33.88
2018-08-07T17:56:37.500Z,33.31
2018-08-07T17:59:35.957Z,32.79
2018-08-07T18:02:34.294Z,32.25
2018-08-07T18:05:32.579Z,31.84
2018-08-07T18:08:31.394Z,31.42
2018-08-07T18:11:29.515Z,31.03
2018-08-07T18:14:28.576Z,30.67
2018-08-07T18:17:27.790Z,30.25
2018-08-07T18:20:34.209Z,29.90
2018-08-07T18:23:32.299Z,29.57
2018-08-07T18:26:30.305Z,29.33
2018-08-07T18:29:28.435Z,29.12
2018-08-07T18:32:27.058Z,28.89
2018-08-07T18:35:27.750Z,28.71
2018-08-07T18:38:25.789Z,28.53
2018-08-07T18:41:24.077Z,28.35
2018-08-07T18:44:23.175Z,28.17
2018-08-07T18:47:21.482Z,28.03
2018-08-07T18:50:20.513Z,27.95
2018-08-07T18:53:18.325Z,27.84
2018-08-07T18:56:16.469Z,27.75
2018-08-07T18:59:15.152Z,27.62
2018-08-07T19:02:13.298Z,27.55
2018-08-07T19:05:11.390Z,27.40
2018-08-07T19:08:09.212Z,27.27
2018-08-07T19:11:07.282Z,27.10
2018-08-07T19:14:05.925Z,27.04
2018-08-07T19:17:04.438Z,26.90
2018-08-07T19:20:02.346Z,26.83
2018-08-07T19:23:00.511Z,26.73
2018-08-07T19:25:58.461Z,26.63
2018-08-07T19:28:56.623Z,26.56
2018-08-07T19:31:54.701Z,26.50
2018-08-07T19:34:52.738Z,26.45
2018-08-07T19:37:50.922Z,26.36
2018-08-07T19:40:49.083Z,26.32
2018-08-07T19:43:47.126Z,26.27
2018-08-07T19:46:47.263Z,26.16
2018-08-07T19:49:45.858Z,26.04
2018-08-07T19:52:45.635Z,25.76
2018-08-07T19:55:43.906Z,25.52
2018-08-07T19:58:43.143Z,25.27
2018-08-07T20:01:41.327Z,25.06
2018-08-07T20:04:39.509Z,24.91
2018-08-07T20:07:37.663Z,24.75
2018-08-07T20:10:36.592Z,24.62
2018-08-07T20:13:34.510Z,24.48
2018-08-07T20:16:33.144Z,24.36
2018-08-07T20:19:31.432Z,24.24
2018-08-07T20:22:35.105Z,24.12
2018-08-07T20:25:33.775Z,24.01
2018-08-07T20:28:31.935Z,23.91
2018-08-07T20:31:30.022Z,23.81
2018-08-07T20:34:28.410Z,23.72
2018-08-07T20:37:27.402Z,23.62
2018-08-07T20:40:28.825Z,23.52
2018-08-07T20:43:27.681Z,23.51
2018-08-07T20:46:26.696Z,23.38
2018-08-07T20:49:24.844Z,23.25
2018-08-07T20:52:23.064Z,23.12
2018-08-07T20:55:22.176Z,23.03
2018-08-07T20:58:21.399Z,22.97
2018-08-07T21:01:19.237Z,22.91
2018-08-07T21:04:17.564Z,22.83
2018-08-07T21:07:17.679Z,22.80
2018-08-07T21:10:16.746Z,22.79
2018-08-07T21:13:15.422Z,22.80
2018-08-07T21:16:13.712Z,22.80
2018-08-07T21:19:11.671Z,22.80
2018-08-07T21:22:10.412Z,22.82
2018-08-07T21:25:08.298Z,22.93
2018-08-07T21:28:08.269Z,23.01
2018-08-07T21:31:06.185Z,22.99
2018-08-07T21:34:04.309Z,22.88
2018-08-07T21:37:02.268Z,22.77
2018-08-07T21:40:01.084Z,22.70
2018-08-07T21:43:01.135Z,22.62
2018-08-07T21:45:59.138Z,22.55
2018-08-07T21:48:57.680Z,22.53
2018-08-07T21:51:56.186Z,22.58
2018-08-07T21:54:54.222Z,22.63
2018-08-07T21:57:52.451Z,22.64
2018-08-07T22:01:00.465Z,22.66
2018-08-07T22:03:58.567Z,22.67
2018-08-07T22:06:56.487Z,22.66
2018-08-07T22:09:55.748Z,22.61
2018-08-07T22:12:54.763Z,22.60
2018-08-07T22:15:53.103Z,22.53
2018-08-07T22:18:50.972Z,22.43
2018-08-07T22:21:49.364Z,22.34
2018-08-07T22:24:48.123Z,22.26
2018-08-07T22:27:46.786Z,22.18
2018-08-07T22:30:46.383Z,22.16
2018-08-07T22:33:44.784Z,22.16
2018-08-07T22:36:42.920Z,22.18
2018-08-07T22:39:40.902Z,22.25
2018-08-07T22:42:39.347Z,22.28
2018-08-07T22:45:38.001Z,22.34
2018-08-07T22:48:36.057Z,22.26
2018-08-07T22:51:34.518Z,22.27
2018-08-07T22:54:32.704Z,22.28
2018-08-07T22:57:32.921Z,22.29
2018-08-07T23:00:33.336Z,22.24
2018-08-07T23:03:31.821Z,22.28
2018-08-07T23:06:29.864Z,22.26
2018-08-07T23:09:30.084Z,22.25
2018-08-07T23:12:28.522Z,22.25
2018-08-07T23:15:29.883Z,22.19
2018-08-07T23:18:28.132Z,22.13
2018-08-07T23:21:26.613Z,22.05
2018-08-07T23:24:24.549Z,22.03
2018-08-07T23:27:22.740Z,22.00
2018-08-07T23:30:22.937Z,21.99
2018-08-07T23:33:21.492Z,21.98
2018-08-07T23:36:20.373Z,21.99
2018-08-07T23:39:19.480Z,21.97
2018-08-07T23:42:17.725Z,21.95
2018-08-07T23:45:18.370Z,21.94
2018-08-07T23:48:16.915Z,21.85
2018-08-07T23:51:15.342Z,21.81
2018-08-07T23:54:13.650Z,21.78
2018-08-07T23:57:11.726Z,21.76
